createdAt,value
2023-01-20T00:01:00.661Z,8.18
2023-01-20T00:02:02.537Z,7.78
2023-01-20T00:03:04.437Z,8.55
2023-01-20T00:04:06.655Z,9.15
2023-01-20T00:05:08.688Z,8.38
2023-01-20T00:06:10.264Z,7.85
2023-01-20T00:07:11.942Z,7.32
2023-01-20T00:08:13.520Z,6.63
2023-01-20T00:09:17.047Z,6.32
2023-01-20T00:10:18.684Z,6.75
2023-01-20T00:11:20.852Z,6.30
2023-01-20T00:12:22.513Z,5.40
2023-01-20T00:13:24.336Z,6.53
2023-01-20T00:14:27.740Z,6.15
2023-01-20T00:15:29.362Z,6.30
2023-01-20T00:16:32.096Z,6.47
2023-01-20T00:17:33.837Z,6.20
2023-01-20T00:18:35.717Z,6.40
2023-01-20T00:19:37.318Z,6.05
2023-01-20T00:20:38.896Z,6.38
2023-01-20T00:21:41.253Z,6.63
2023-01-20T00:22:42.880Z,6.20
2023-01-20T00:23:45.553Z,6.10
2023-01-20T00:25:48.606Z,5.72
2023-01-20T00:26:50.356Z,6.10
2023-01-20T00:27:55.290Z,5.75
2023-01-20T00:28:57.832Z,6.07
2023-01-20T00:29:59.514Z,5.63
2023-01-20T00:31:15.226Z,5.88
2023-01-20T00:32:16.861Z,5.22
2023-01-20T00:33:18.442Z,6.28
2023-01-20T00:34:20.210Z,6.45
2023-01-20T00:35:21.929Z,6.32
2023-01-20T00:36:24.576Z,6.18
2023-01-20T00:38:27.764Z,5.30
2023-01-20T00:39:29.401Z,5.75
2023-01-20T00:40:31.017Z,6.22
2023-01-20T00:41:32.710Z,6.18
2023-01-20T00:42:34.316Z,5.90
2023-01-20T00:43:36.388Z,6.13
2023-01-20T00:44:37.964Z,5.82
2023-01-20T00:45:40.948Z,6.05
2023-01-20T00:46:42.847Z,6.05
2023-01-20T00:47:44.512Z,6.70
2023-01-20T00:48:46.099Z,6.35
2023-01-20T00:49:48.202Z,6.53
2023-01-20T00:50:49.840Z,6.63
2023-01-20T00:51:51.500Z,6.72
2023-01-20T00:52:53.083Z,6.50
2023-01-20T00:53:54.761Z,6.72
2023-01-20T00:54:56.352Z,6.57
2023-01-20T00:55:58.050Z,6.15
2023-01-20T00:56:59.707Z,6.85
2023-01-20T00:58:01.355Z,6.93
2023-01-20T00:59:02.996Z,6.95
2023-01-20T01:00:05.251Z,6.47
2023-01-20T01:01:06.969Z,7.20
2023-01-20T01:02:08.678Z,6.80
2023-01-20T01:03:10.593Z,7.60
2023-01-20T01:04:12.227Z,7.30
2023-01-20T01:05:14.211Z,7.63
2023-01-20T01:06:17.836Z,7.35
2023-01-20T01:07:20.118Z,7.30
2023-01-20T01:08:21.731Z,6.82
2023-01-20T01:09:23.388Z,7.05
2023-01-20T01:10:25.064Z,7.25
2023-01-20T01:11:26.720Z,7.90
2023-01-20T01:12:28.526Z,7.85
2023-01-20T01:13:30.142Z,7.57
2023-01-20T01:14:32.393Z,7.15
2023-01-20T01:15:34.204Z,7.15
2023-01-20T01:16:36.226Z,7.35
2023-01-20T01:17:37.956Z,6.85
2023-01-20T01:18:40.426Z,6.60
2023-01-20T01:19:42.068Z,6.53
2023-01-20T01:20:44.811Z,7.00
2023-01-20T01:21:46.493Z,6.93
2023-01-20T01:22:48.166Z,6.57
2023-01-20T01:23:51.833Z,7.10
2023-01-20T01:24:53.435Z,7.15
2023-01-20T01:25:54.993Z,7.07
2023-01-20T01:26:56.610Z,7.20
2023-01-20T01:27:58.171Z,7.10
2023-01-20T01:28:59.758Z,7.22
2023-01-20T01:30:01.415Z,8.00
2023-01-20T01:31:04.134Z,7.22
2023-01-20T01:32:06.274Z,6.70
2023-01-20T01:33:07.941Z,6.90
2023-01-20T01:34:09.512Z,7.60
2023-01-20T01:35:11.148Z,7.15
2023-01-20T01:36:14.655Z,7.13
2023-01-20T01:37:16.248Z,7.15
2023-01-20T01:38:17.856Z,7.05
2023-01-20T01:39:19.492Z,8.13
2023-01-20T01:40:21.142Z,7.50
2023-01-20T01:41:22.781Z,7.50
2023-01-20T01:42:25.957Z,7.15
2023-01-20T01:43:29.094Z,7.72
2023-01-20T01:44:31.853Z,7.90
2023-01-20T01:45:33.572Z,7.63
2023-01-20T01:46:35.616Z,7.15
2023-01-20T01:47:40.527Z,8.98
2023-01-20T01:48:45.905Z,8.32
2023-01-20T01:49:48.137Z,8.05
2023-01-20T01:51:03.073Z,7.82
2023-01-20T01:52:10.912Z,8.07
2023-01-20T01:53:14.254Z,8.27
2023-01-20T01:54:18.954Z,7.47
2023-01-20T01:55:23.920Z,8.50
2023-01-20T01:56:26.425Z,8.13
2023-01-20T01:57:29.235Z,8.18
2023-01-20T01:58:36.213Z,8.63
2023-01-20T01:59:38.737Z,8.27
2023-01-20T02:00:40.509Z,9.10
2023-01-20T02:01:46.935Z,10.07
2023-01-20T02:02:48.795Z,9.25
2023-01-20T02:03:53.230Z,8.63
2023-01-20T02:04:54.799Z,9.30
2023-01-20T02:05:57.140Z,9.30
2023-01-20T02:07:03.683Z,8.98
2023-01-20T02:08:07.674Z,9.23
2023-01-20T02:09:09.322Z,8.68
2023-01-20T02:10:11.782Z,8.57
2023-01-20T02:11:13.457Z,8.60
2023-01-20T02:12:17.658Z,7.95
2023-01-20T02:13:19.208Z,8.40
2023-01-20T02:14:38.177Z,8.35
2023-01-20T02:15:52.468Z,8.55
2023-01-20T02:17:05.520Z,8.20
2023-01-20T02:18:22.492Z,7.20
2023-01-20T02:20:01.527Z,8.10
2023-01-20T02:21:03.114Z,7.03
2023-01-20T02:22:17.676Z,7.72
2023-01-20T02:23:37.755Z,7.82
2023-01-20T02:24:42.204Z,8.05
2023-01-20T02:26:05.538Z,7.03
2023-01-20T02:27:25.423Z,7.15
2023-01-20T02:29:03.099Z,7.60
2023-01-20T02:30:21.603Z,7.28
2023-01-20T02:31:25.955Z,8.27
2023-01-20T02:32:33.376Z,8.10
2023-01-20T02:33:45.929Z,8.45
2023-01-20T02:34:59.155Z,9.15
2023-01-20T02:36:11.712Z,9.07
2023-01-20T02:37:23.947Z,9.98
2023-01-20T02:38:33.008Z,9.32
2023-01-20T02:39:48.870Z,8.45
2023-01-20T02:40:50.431Z,10.05
2023-01-20T02:42:12.903Z,9.25
2023-01-20T02:43:14.379Z,9.80
2023-01-20T02:44:34.339Z,9.82
2023-01-20T02:45:43.044Z,9.20
2023-01-20T02:48:16.050Z,8.40
2023-01-20T02:49:28.339Z,8.95
2023-01-20T02:50:40.702Z,9.55
2023-01-20T02:52:00.172Z,8.52
2023-01-20T02:53:03.339Z,8.98
2023-01-20T02:54:10.848Z,8.20
2023-01-20T02:55:21.305Z,8.50
2023-01-20T02:56:25.638Z,8.10
2023-01-20T02:57:33.564Z,8.35
2023-01-20T02:58:40.873Z,8.80
2023-01-20T02:59:44.557Z,8.88
2023-01-20T03:00:55.065Z,9.48
2023-01-20T03:02:04.817Z,8.48
2023-01-20T03:03:10.602Z,9.50
2023-01-20T03:04:14.062Z,8.18
2023-01-20T03:05:21.484Z,8.60
2023-01-20T03:06:25.702Z,8.95
2023-01-20T03:07:28.669Z,7.75
2023-01-20T03:08:31.976Z,8.15
2023-01-20T03:09:38.084Z,8.82
2023-01-20T03:10:41.880Z,8.13
2023-01-20T03:11:47.608Z,7.78
2023-01-20T03:12:57.333Z,8.15
2023-01-20T03:14:05.248Z,7.80
2023-01-20T03:15:07.513Z,7.60
2023-01-20T03:16:14.796Z,8.40
2023-01-20T03:17:16.436Z,7.55
2023-01-20T03:18:18.062Z,7.55
2023-01-20T03:19:20.689Z,6.50
2023-01-20T03:20:22.449Z,7.53
2023-01-20T03:21:24.454Z,7.18
2023-01-20T03:22:26.063Z,7.25
2023-01-20T03:23:28.537Z,7.47
2023-01-20T03:24:32.836Z,7.10
2023-01-20T03:25:34.500Z,7.13
2023-01-20T03:26:36.179Z,7.93
2023-01-20T03:27:37.870Z,7.80
2023-01-20T03:28:41.513Z,7.47
2023-01-20T03:29:43.031Z,7.57
2023-01-20T03:30:44.610Z,7.25
2023-01-20T03:31:49.228Z,7.45
2023-01-20T03:32:51.791Z,8.02
2023-01-20T03:33:55.675Z,7.53
2023-01-20T03:34:57.632Z,7.47
2023-01-20T03:35:59.283Z,7.35
2023-01-20T03:37:01.560Z,7.68
2023-01-20T03:38:03.241Z,7.30
2023-01-20T03:39:04.852Z,7.30
2023-01-20T03:40:07.209Z,7.10
2023-01-20T03:41:17.199Z,7.68
2023-01-20T03:42:32.261Z,7.85
2023-01-20T03:43:43.354Z,8.45
2023-01-20T03:45:06.926Z,8.15
2023-01-20T03:46:18.593Z,7.15
2023-01-20T03:47:29.091Z,6.72
2023-01-20T03:49:17.046Z,7.07
2023-01-20T03:50:28.798Z,6.40
2023-01-20T03:51:36.564Z,7.45
2023-01-20T03:52:54.084Z,6.97
2023-01-20T03:54:02.459Z,7.47
2023-01-20T03:55:10.603Z,6.43
2023-01-20T03:56:20.176Z,7.28
2023-01-20T03:57:25.194Z,7.65
2023-01-20T03:58:35.469Z,7.70
2023-01-20T03:59:38.824Z,7.38
2023-01-20T04:00:43.301Z,8.30
2023-01-20T04:01:45.558Z,8.30
2023-01-20T04:02:47.377Z,7.90
2023-01-20T04:03:51.309Z,7.50
2023-01-20T04:04:53.505Z,6.95
2023-01-20T04:05:55.861Z,7.43
2023-01-20T04:06:57.605Z,6.93
2023-01-20T04:08:03.764Z,7.35
2023-01-20T04:09:08.853Z,6.90
2023-01-20T04:10:12.304Z,7.50
2023-01-20T04:11:14.023Z,7.28
2023-01-20T04:12:15.621Z,7.13
2023-01-20T04:13:17.345Z,7.10
2023-01-20T04:14:19.012Z,6.88
2023-01-20T04:15:21.858Z,7.07
2023-01-20T04:16:24.835Z,6.70
2023-01-20T04:17:29.460Z,6.90
2023-01-20T04:18:31.089Z,6.72
2023-01-20T04:19:32.673Z,8.25
2023-01-20T04:20:34.226Z,7.22
2023-01-20T04:21:42.250Z,6.90
2023-01-20T04:22:53.932Z,7.07
2023-01-20T04:24:16.820Z,7.05
2023-01-20T04:25:26.935Z,6.55
2023-01-20T04:26:28.599Z,7.15
2023-01-20T04:27:30.208Z,7.32
2023-01-20T04:28:32.314Z,6.40
2023-01-20T04:29:33.952Z,6.63
2023-01-20T04:30:35.539Z,7.43
2023-01-20T04:31:37.545Z,7.28
2023-01-20T04:32:39.223Z,7.60
2023-01-20T04:33:41.421Z,7.85
2023-01-20T04:34:43.070Z,7.38
2023-01-20T04:35:44.568Z,7.30
2023-01-20T04:36:46.196Z,7.18
2023-01-20T04:37:47.845Z,7.95
2023-01-20T04:38:49.439Z,8.30
2023-01-20T04:39:51.028Z,8.68
2023-01-20T04:40:52.719Z,8.35
2023-01-20T04:41:54.388Z,13.45
2023-01-20T04:42:56.032Z,9.82
2023-01-20T04:43:57.614Z,8.45
2023-01-20T04:44:59.305Z,7.43
2023-01-20T04:46:00.934Z,10.10
2023-01-20T04:47:02.439Z,11.73
2023-01-20T04:48:07.967Z,11.00
2023-01-20T04:49:11.027Z,11.32
2023-01-20T04:50:13.861Z,10.45
2023-01-20T04:51:15.469Z,9.88
2023-01-20T04:52:17.553Z,9.80
2023-01-20T04:53:19.359Z,11.57
2023-01-20T04:54:21.225Z,10.70
2023-01-20T04:55:22.863Z,10.55
2023-01-20T04:56:24.578Z,10.45
2023-01-20T04:57:26.199Z,9.35
2023-01-20T04:58:27.837Z,7.65
2023-01-20T04:59:29.504Z,8.55
2023-01-20T05:00:31.308Z,8.30
2023-01-20T05:01:32.940Z,8.38
2023-01-20T05:02:34.615Z,8.32
2023-01-20T05:03:36.469Z,7.43
2023-01-20T05:04:38.145Z,8.38
2023-01-20T05:05:40.084Z,7.57
2023-01-20T05:06:43.395Z,8.07
2023-01-20T05:07:45.288Z,7.60
2023-01-20T05:08:46.955Z,8.13
2023-01-20T05:09:48.542Z,7.50
2023-01-20T05:10:50.254Z,6.90
2023-01-20T05:11:51.870Z,7.25
2023-01-20T05:12:53.500Z,7.13
2023-01-20T05:13:55.080Z,7.20
2023-01-20T05:14:56.706Z,7.85
2023-01-20T05:15:58.498Z,7.50
2023-01-20T05:17:00.328Z,8.20
2023-01-20T05:18:01.953Z,7.72
2023-01-20T05:19:03.541Z,7.90
2023-01-20T05:20:05.461Z,8.10
2023-01-20T05:21:11.232Z,7.78
2023-01-20T05:22:12.866Z,7.65
2023-01-20T05:23:14.635Z,8.10
2023-01-20T05:24:16.253Z,7.50
2023-01-20T05:25:17.863Z,7.80
2023-01-20T05:26:19.443Z,7.70
2023-01-20T05:27:20.983Z,7.55
2023-01-20T05:28:22.590Z,7.07
2023-01-20T05:29:24.213Z,6.57
2023-01-20T05:30:25.814Z,7.35
2023-01-20T05:31:27.411Z,6.90
2023-01-20T05:32:29.061Z,6.97
2023-01-20T05:33:30.643Z,6.47
2023-01-20T05:34:32.240Z,7.07
2023-01-20T05:35:33.894Z,6.68
2023-01-20T05:36:35.610Z,7.35
2023-01-20T05:37:37.226Z,6.60
2023-01-20T05:38:38.902Z,7.10
2023-01-20T05:39:40.490Z,7.03
2023-01-20T05:40:42.059Z,6.57
2023-01-20T05:41:44.367Z,7.20
2023-01-20T05:42:45.994Z,7.28
2023-01-20T05:43:47.510Z,6.90
2023-01-20T05:44:49.172Z,7.45
2023-01-20T05:45:50.685Z,7.88
2023-01-20T05:46:52.230Z,7.78
2023-01-20T05:47:58.070Z,8.32
2023-01-20T05:48:59.617Z,7.63
2023-01-20T05:50:01.273Z,7.93
2023-01-20T05:51:03.029Z,6.68
2023-01-20T05:52:04.862Z,7.88
2023-01-20T05:53:06.471Z,7.50
2023-01-20T05:54:08.045Z,7.80
2023-01-20T05:55:09.869Z,7.80
2023-01-20T05:56:15.924Z,7.80
2023-01-20T05:57:18.334Z,7.72
2023-01-20T05:58:19.957Z,8.40
2023-01-20T05:59:23.309Z,7.70
2023-01-20T06:00:25.017Z,7.70
2023-01-20T06:01:26.671Z,8.35
2023-01-20T06:02:30.953Z,7.25
2023-01-20T06:03:32.681Z,8.48
2023-01-20T06:04:34.470Z,7.68
2023-01-20T06:05:36.146Z,8.35
2023-01-20T06:06:38.058Z,7.82
2023-01-20T06:07:39.756Z,8.05
2023-01-20T06:08:41.923Z,8.43
2023-01-20T06:09:43.572Z,8.95
2023-01-20T06:10:45.228Z,7.32
2023-01-20T06:11:46.856Z,7.88
2023-01-20T06:12:53.128Z,7.25
2023-01-20T06:13:54.796Z,7.32
2023-01-20T06:14:56.414Z,7.55
2023-01-20T06:15:58.121Z,6.43
2023-01-20T06:16:59.819Z,7.47
2023-01-20T06:18:01.418Z,7.82
2023-01-20T06:19:03.112Z,7.28
2023-01-20T06:20:06.292Z,7.88
2023-01-20T06:21:07.926Z,6.35
2023-01-20T06:22:13.946Z,9.35
2023-01-20T06:23:15.771Z,7.10
2023-01-20T06:24:17.331Z,8.70
2023-01-20T06:25:18.949Z,6.82
2023-01-20T06:26:20.620Z,8.02
2023-01-20T06:27:22.246Z,7.72
2023-01-20T06:28:23.879Z,6.95
2023-01-20T06:29:25.524Z,7.38
2023-01-20T06:30:27.137Z,7.38
2023-01-20T06:31:28.830Z,7.70
2023-01-20T06:32:30.540Z,7.25
2023-01-20T06:33:33.051Z,8.27
2023-01-20T06:34:34.659Z,7.07
2023-01-20T06:35:37.281Z,7.22
2023-01-20T06:37:40.482Z,7.68
2023-01-20T06:38:42.149Z,7.45
2023-01-20T06:39:43.811Z,7.65
2023-01-20T06:40:45.382Z,8.18
2023-01-20T06:41:47.077Z,8.45
2023-01-20T06:42:48.698Z,8.63
2023-01-20T06:43:51.275Z,9.30
2023-01-20T06:44:52.946Z,8.68
2023-01-20T06:45:59.142Z,9.43
2023-01-20T06:47:00.747Z,8.95
2023-01-20T06:48:02.355Z,8.93
2023-01-20T06:49:04.069Z,9.02
2023-01-20T06:50:06.233Z,9.80
2023-01-20T06:51:11.867Z,8.65
2023-01-20T06:52:13.515Z,8.30
2023-01-20T06:53:15.099Z,9.15
2023-01-20T06:54:16.895Z,8.93
2023-01-20T06:55:18.405Z,9.35
2023-01-20T06:56:20.266Z,10.00
2023-01-20T06:57:21.833Z,9.95
2023-01-20T06:58:28.512Z,9.60
2023-01-20T06:59:30.084Z,9.25
2023-01-20T07:00:31.674Z,9.65
2023-01-20T07:01:34.186Z,10.52
2023-01-20T07:02:35.901Z,10.20
2023-01-20T07:03:37.815Z,10.95
2023-01-20T07:04:39.684Z,9.63
2023-01-20T07:05:41.245Z,9.93
2023-01-20T07:06:42.924Z,9.48
2023-01-20T07:07:45.833Z,9.95
2023-01-20T07:08:47.455Z,9.50
2023-01-20T07:09:49.091Z,9.80
2023-01-20T07:10:53.628Z,9.05
2023-01-20T07:11:55.218Z,9.32
2023-01-20T07:12:56.829Z,8.15
2023-01-20T07:13:58.549Z,9.27
2023-01-20T07:15:00.133Z,9.57
2023-01-20T07:16:01.856Z,9.70
2023-01-20T07:17:03.486Z,8.38
2023-01-20T07:18:05.114Z,9.82
2023-01-20T07:19:06.823Z,9.63
2023-01-20T07:20:09.272Z,9.55
2023-01-20T07:21:12.054Z,9.20
2023-01-20T07:22:13.577Z,9.52
2023-01-20T07:23:15.321Z,9.35
2023-01-20T07:24:17.892Z,8.32
2023-01-20T07:25:19.546Z,9.88
2023-01-20T07:26:23.177Z,9.02
2023-01-20T07:27:24.763Z,9.57
2023-01-20T07:28:26.731Z,9.80
2023-01-20T07:29:28.359Z,10.23
2023-01-20T07:30:30.116Z,10.45
2023-01-20T07:31:31.876Z,10.68
2023-01-20T07:32:33.514Z,11.75
2023-01-20T07:33:35.771Z,11.52
2023-01-20T07:34:37.451Z,11.70
2023-01-20T07:35:39.048Z,10.68
2023-01-20T07:36:40.663Z,8.88
2023-01-20T07:37:42.269Z,9.73
2023-01-20T07:38:47.225Z,10.25
2023-01-20T07:39:48.817Z,10.93
2023-01-20T07:40:50.498Z,10.45
2023-01-20T07:41:52.116Z,11.82
2023-01-20T07:42:54.920Z,10.55
2023-01-20T07:43:56.502Z,9.80
2023-01-20T07:44:58.173Z,9.00
2023-01-20T07:46:01.615Z,9.63
2023-01-20T07:47:03.344Z,9.70
2023-01-20T07:48:06.879Z,10.40
2023-01-20T07:49:10.667Z,10.57
2023-01-20T07:50:13.807Z,9.32
2023-01-20T07:51:16.489Z,9.27
2023-01-20T07:52:18.079Z,8.68
2023-01-20T07:53:19.687Z,10.45
2023-01-20T07:54:21.342Z,9.18
2023-01-20T07:55:24.998Z,8.82
2023-01-20T07:56:28.093Z,8.38
2023-01-20T07:57:30.257Z,9.20
2023-01-20T07:58:32.290Z,7.75
2023-01-20T07:59:33.892Z,8.75
2023-01-20T08:00:35.479Z,9.20
2023-01-20T08:01:37.180Z,8.98
2023-01-20T08:02:39.027Z,8.85
2023-01-20T08:03:41.163Z,9.27
2023-01-20T08:04:42.985Z,8.40
2023-01-20T08:05:44.732Z,8.82
2023-01-20T08:06:46.335Z,8.82
2023-01-20T08:07:52.301Z,16.50
2023-01-20T08:08:54.723Z,9.60
2023-01-20T08:09:57.078Z,9.32
2023-01-20T08:10:59.575Z,10.43
2023-01-20T08:12:02.209Z,11.95
2023-01-20T08:14:05.357Z,7.88
2023-01-20T08:15:07.792Z,8.13
2023-01-20T08:16:12.842Z,7.50
2023-01-20T08:17:14.483Z,6.47
2023-01-20T08:18:16.272Z,8.07
2023-01-20T08:19:17.861Z,8.20
2023-01-20T08:20:19.776Z,7.57
2023-01-20T08:21:29.265Z,8.32
2023-01-20T08:22:30.883Z,8.00
2023-01-20T08:23:33.656Z,8.88
2023-01-20T08:24:35.205Z,8.80
2023-01-20T08:25:36.871Z,8.43
2023-01-20T08:26:38.472Z,9.50
2023-01-20T08:27:40.048Z,18.80
2023-01-20T08:28:42.343Z,10.30
2023-01-20T08:29:44.160Z,9.82
2023-01-20T08:30:45.802Z,10.45
2023-01-20T08:31:47.587Z,10.77
2023-01-20T08:32:49.418Z,8.68
2023-01-20T08:33:54.948Z,8.95
2023-01-20T08:34:56.573Z,8.10
2023-01-20T08:36:07.370Z,8.70
2023-01-20T08:37:08.998Z,9.35
2023-01-20T08:38:10.593Z,7.57
2023-01-20T08:39:14.604Z,8.63
2023-01-20T08:40:17.628Z,8.18
2023-01-20T08:41:27.859Z,8.65
2023-01-20T08:42:29.862Z,9.63
2023-01-20T08:43:31.465Z,9.13
2023-01-20T08:44:33.171Z,12.02
2023-01-20T08:45:34.790Z,10.52
2023-01-20T08:46:41.385Z,8.93
2023-01-20T08:47:45.901Z,8.85
2023-01-20T08:48:48.815Z,9.85
2023-01-20T08:49:52.938Z,8.20
2023-01-20T08:50:54.537Z,8.98
2023-01-20T08:51:56.334Z,8.95
2023-01-20T08:52:57.969Z,9.90
2023-01-20T08:53:59.861Z,7.55
2023-01-20T08:55:01.561Z,9.98
2023-01-20T08:56:03.873Z,9.98
2023-01-20T08:57:05.544Z,9.40
2023-01-20T08:58:07.121Z,9.60
2023-01-20T08:59:08.708Z,8.70
2023-01-20T09:00:11.256Z,9.75
2023-01-20T09:01:16.966Z,9.05
2023-01-20T09:02:21.037Z,8.35
2023-01-20T09:03:22.817Z,9.25
2023-01-20T09:04:24.401Z,9.55
2023-01-20T09:05:27.180Z,9.55
2023-01-20T09:06:28.771Z,8.27
2023-01-20T09:07:30.359Z,9.57
2023-01-20T09:08:32.319Z,8.90
2023-01-20T09:09:34.007Z,8.98
2023-01-20T09:10:36.097Z,8.25
2023-01-20T09:11:39.437Z,9.30
2023-01-20T09:12:41.186Z,8.88
2023-01-20T09:13:42.808Z,10.63
2023-01-20T09:14:44.404Z,9.48
2023-01-20T09:15:52.014Z,11.23
2023-01-20T09:16:53.792Z,9.55
2023-01-20T09:17:55.497Z,10.40
2023-01-20T09:18:57.038Z,9.35
2023-01-20T09:19:58.663Z,9.32
2023-01-20T09:21:02.005Z,8.93
2023-01-20T09:22:04.017Z,9.68
2023-01-20T09:23:05.818Z,9.60
2023-01-20T09:24:07.770Z,9.18
2023-01-20T09:25:10.101Z,8.52
2023-01-20T09:26:12.388Z,8.77
2023-01-20T09:27:14.900Z,9.35
2023-01-20T09:28:16.556Z,8.90
2023-01-20T09:29:20.651Z,8.02
2023-01-20T09:30:22.357Z,8.85
2023-01-20T09:31:24.067Z,8.73
2023-01-20T09:32:25.721Z,8.90
2023-01-20T09:33:27.504Z,9.75
2023-01-20T09:34:29.489Z,8.77
2023-01-20T09:35:31.222Z,8.85
2023-01-20T09:36:32.843Z,8.00
2023-01-20T09:37:52.897Z,8.32
2023-01-20T09:39:13.252Z,8.23
2023-01-20T09:40:37.548Z,8.27
2023-01-20T09:41:58.385Z,8.88
2023-01-20T09:44:35.132Z,7.75
2023-01-20T09:45:40.198Z,7.60
2023-01-20T09:47:10.296Z,8.45
2023-01-20T09:48:35.149Z,8.32
2023-01-20T09:50:02.441Z,7.85
2023-01-20T09:51:27.281Z,7.82
2023-01-20T09:52:55.488Z,8.32
2023-01-20T09:54:04.020Z,7.75
2023-01-20T09:55:12.999Z,7.78
2023-01-20T09:56:17.652Z,8.43
2023-01-20T09:57:21.636Z,7.72
2023-01-20T09:58:37.012Z,8.20
2023-01-20T09:59:52.574Z,7.90
2023-01-20T10:01:07.257Z,8.35
2023-01-20T10:02:17.209Z,8.50
2023-01-20T10:03:24.822Z,8.40
2023-01-20T10:04:37.116Z,8.55
2023-01-20T10:05:39.816Z,8.70
2023-01-20T10:06:44.012Z,7.82
2023-01-20T10:07:56.235Z,8.43
2023-01-20T10:09:06.489Z,8.82
2023-01-20T10:10:17.395Z,8.25
2023-01-20T10:11:20.328Z,9.65
2023-01-20T10:12:34.284Z,9.07
2023-01-20T10:13:47.395Z,9.90
2023-01-20T10:15:12.630Z,8.93
2023-01-20T10:16:23.761Z,9.07
2023-01-20T10:17:30.925Z,8.25
2023-01-20T10:18:56.578Z,9.07
2023-01-20T10:20:17.585Z,9.70
2023-01-20T10:21:31.476Z,10.57
2023-01-20T10:22:41.076Z,8.77
2023-01-20T10:23:48.246Z,10.18
2023-01-20T10:24:55.579Z,8.80
2023-01-20T10:26:20.030Z,8.95
2023-01-20T10:27:25.185Z,9.98
2023-01-20T10:28:28.952Z,9.63
2023-01-20T10:29:55.838Z,9.50
2023-01-20T10:30:58.773Z,9.75
2023-01-20T10:32:02.860Z,9.40
2023-01-20T10:33:10.964Z,8.80
2023-01-20T10:34:19.409Z,9.55
2023-01-20T10:35:24.406Z,9.02
2023-01-20T10:36:29.882Z,8.95
2023-01-20T10:37:32.149Z,9.48
2023-01-20T10:38:46.650Z,9.63
2023-01-20T10:40:10.343Z,9.07
2023-01-20T10:41:22.482Z,8.98
2023-01-20T10:42:26.036Z,9.73
2023-01-20T10:43:28.061Z,9.73
2023-01-20T10:44:33.238Z,10.90
2023-01-20T10:46:00.261Z,9.80
2023-01-20T10:47:29.877Z,10.43
2023-01-20T10:48:46.676Z,9.48
2023-01-20T10:49:52.886Z,9.27
2023-01-20T10:51:00.055Z,9.82
2023-01-20T10:52:15.197Z,9.95
2023-01-20T10:53:58.246Z,9.63
2023-01-20T10:55:10.344Z,11.60
2023-01-20T10:56:36.014Z,10.52
2023-01-20T10:57:38.525Z,9.90
2023-01-20T10:58:43.512Z,9.90
2023-01-20T10:59:48.233Z,10.02
2023-01-20T11:00:50.203Z,9.65
2023-01-20T11:01:59.394Z,9.70
2023-01-20T11:03:14.675Z,9.23
2023-01-20T11:04:19.268Z,9.30
2023-01-20T11:05:30.758Z,9.00
2023-01-20T11:06:33.036Z,9.48
2023-01-20T11:07:34.661Z,10.05
2023-01-20T11:08:36.313Z,9.55
2023-01-20T11:09:37.907Z,10.68
2023-01-20T11:10:40.150Z,12.43
2023-01-20T11:11:41.829Z,9.80
2023-01-20T11:12:44.913Z,10.93
2023-01-20T11:13:46.577Z,10.30
2023-01-20T11:14:48.705Z,9.55
2023-01-20T11:15:59.300Z,10.85
2023-01-20T11:17:05.634Z,9.60
2023-01-20T11:18:15.995Z,11.18
2023-01-20T11:19:17.634Z,11.18
2023-01-20T11:20:20.809Z,11.05
2023-01-20T11:21:24.618Z,11.25
2023-01-20T11:22:30.336Z,11.23
2023-01-20T11:23:35.803Z,10.32
2023-01-20T11:24:44.003Z,10.23
2023-01-20T11:25:55.206Z,10.52
2023-01-20T11:27:05.825Z,9.65
2023-01-20T11:28:16.942Z,8.93
2023-01-20T11:29:19.077Z,9.63
2023-01-20T11:30:27.769Z,9.98
2023-01-20T11:31:48.504Z,9.02
2023-01-20T11:33:22.534Z,8.95
2023-01-20T11:34:29.904Z,8.73
2023-01-20T11:35:31.513Z,9.73
2023-01-20T11:36:33.077Z,8.57
2023-01-20T11:37:37.563Z,9.25
2023-01-20T11:38:50.162Z,8.80
2023-01-20T11:39:51.650Z,7.75
2023-01-20T11:40:54.216Z,9.27
2023-01-20T11:42:41.452Z,8.18
2023-01-20T11:43:43.115Z,8.30
2023-01-20T11:44:47.792Z,8.65
2023-01-20T11:45:49.442Z,8.95
2023-01-20T11:46:51.131Z,8.82
2023-01-20T11:48:19.939Z,8.07
2023-01-20T11:49:22.474Z,7.60
2023-01-20T11:50:38.915Z,9.20
2023-01-20T11:51:48.855Z,9.57
2023-01-20T11:52:50.508Z,8.20
2023-01-20T11:54:07.094Z,8.70
2023-01-20T11:55:25.391Z,9.30
2023-01-20T11:56:27.122Z,8.80
2023-01-20T11:57:28.700Z,8.63
2023-01-20T11:58:34.684Z,9.88
2023-01-20T11:59:37.288Z,8.90
2023-01-20T12:01:58.326Z,8.07
2023-01-20T12:03:22.770Z,9.07
2023-01-20T12:04:36.352Z,8.68
2023-01-20T12:05:44.780Z,10.02
2023-01-20T12:07:03.668Z,9.20
2023-01-20T12:08:10.722Z,8.52
2023-01-20T12:09:16.928Z,9.23
2023-01-20T12:10:28.073Z,9.30
2023-01-20T12:11:53.584Z,9.45
2023-01-20T12:13:01.218Z,10.93
2023-01-20T12:14:25.622Z,9.68
2023-01-20T12:15:33.352Z,11.73
2023-01-20T12:16:36.159Z,11.60
2023-01-20T12:17:52.974Z,10.85
2023-01-20T12:19:02.213Z,10.43
2023-01-20T12:20:10.168Z,9.48
2023-01-20T12:21:18.216Z,10.05
2023-01-20T12:22:33.176Z,10.23
2023-01-20T12:24:06.821Z,9.82
2023-01-20T12:25:34.519Z,9.75
2023-01-20T12:26:36.486Z,9.45
2023-01-20T12:27:45.390Z,9.75
2023-01-20T12:29:05.669Z,9.63
2023-01-20T12:30:17.160Z,10.20
2023-01-20T12:31:20.545Z,10.30
2023-01-20T12:32:22.229Z,9.32
2023-01-20T12:33:32.799Z,9.85
2023-01-20T12:34:35.375Z,9.63
2023-01-20T12:35:41.955Z,10.25
2023-01-20T12:36:46.489Z,9.68
2023-01-20T12:37:55.746Z,10.23
2023-01-20T12:39:17.638Z,10.13
2023-01-20T12:40:40.820Z,9.27
2023-01-20T12:41:53.658Z,9.73
2023-01-20T12:43:33.404Z,10.25
2023-01-20T12:44:57.432Z,9.90
2023-01-20T12:46:14.058Z,8.60
2023-01-20T12:47:27.848Z,9.20
2023-01-20T12:48:42.732Z,9.60
2023-01-20T12:51:20.602Z,9.02
2023-01-20T12:52:28.267Z,8.55
2023-01-20T12:53:39.146Z,8.70
2023-01-20T12:55:22.400Z,9.77
2023-01-20T12:56:48.926Z,8.88
2023-01-20T12:58:02.463Z,10.13
2023-01-20T12:59:27.268Z,10.45
2023-01-20T13:00:37.543Z,10.43
2023-01-20T13:02:06.370Z,10.55
2023-01-20T13:03:23.226Z,11.82
2023-01-20T13:04:56.481Z,11.35
2023-01-20T13:07:05.964Z,12.25
2023-01-20T13:08:37.281Z,9.35
2023-01-20T13:09:49.495Z,9.18
2023-01-20T13:11:18.602Z,9.55
2023-01-20T13:12:41.617Z,9.43
2023-01-20T13:14:08.419Z,9.00
2023-01-20T13:15:19.729Z,8.43
2023-01-20T13:16:46.069Z,9.57
2023-01-20T13:18:15.612Z,8.55
2023-01-20T13:19:29.636Z,7.60
2023-01-20T13:20:31.675Z,8.13
2023-01-20T13:21:34.316Z,8.75
2023-01-20T13:23:38.514Z,7.80
2023-01-20T13:25:45.233Z,9.18
2023-01-20T13:26:47.940Z,8.43
2023-01-20T13:27:51.346Z,8.80
2023-01-20T13:28:54.672Z,8.35
2023-01-20T13:29:58.372Z,8.75
2023-01-20T13:31:01.956Z,9.18
2023-01-20T13:32:04.854Z,9.60
2023-01-20T13:33:17.601Z,9.88
2023-01-20T13:34:22.132Z,9.98
2023-01-20T13:35:24.201Z,10.13
2023-01-20T13:36:25.788Z,10.32
2023-01-20T13:37:29.345Z,10.10
2023-01-20T13:38:33.228Z,10.05
2023-01-20T13:39:39.632Z,10.25
2023-01-20T13:40:53.050Z,9.20
2023-01-20T13:41:54.745Z,13.38
2023-01-20T13:42:56.345Z,12.05
2023-01-20T13:43:58.204Z,9.88
2023-01-20T13:45:11.967Z,10.75
2023-01-20T13:46:17.133Z,9.70
2023-01-20T13:47:57.610Z,8.68
2023-01-20T13:49:10.944Z,9.27
2023-01-20T13:50:36.061Z,8.88
2023-01-20T13:51:37.632Z,9.95
2023-01-20T13:52:52.010Z,9.07
2023-01-20T13:53:53.814Z,7.50
2023-01-20T13:54:57.039Z,8.40
2023-01-20T13:56:00.790Z,7.93
2023-01-20T13:57:23.157Z,8.45
2023-01-20T13:58:27.980Z,8.25
2023-01-20T13:59:29.550Z,7.82
2023-01-20T14:00:31.171Z,8.68
2023-01-20T14:01:33.915Z,8.60
2023-01-20T14:02:37.391Z,9.05
2023-01-20T14:03:40.330Z,7.85
2023-01-20T14:04:46.202Z,8.30
2023-01-20T14:06:01.711Z,8.07
2023-01-20T14:07:09.716Z,9.10
2023-01-20T14:08:15.161Z,8.13
2023-01-20T14:09:24.586Z,7.68
2023-01-20T14:10:26.597Z,8.25
2023-01-20T14:11:29.456Z,8.23
2023-01-20T14:12:31.025Z,8.45
2023-01-20T14:13:32.678Z,8.02
2023-01-20T14:14:34.449Z,8.25
2023-01-20T14:15:38.058Z,7.28
2023-01-20T14:16:41.668Z,7.50
2023-01-20T14:17:43.332Z,8.77
2023-01-20T14:18:45.124Z,8.30
2023-01-20T14:19:51.823Z,8.38
2023-01-20T14:21:05.214Z,8.55
2023-01-20T14:22:39.102Z,8.60
2023-01-20T14:23:40.834Z,8.15
2023-01-20T14:24:47.234Z,8.10
2023-01-20T14:26:00.812Z,7.65
2023-01-20T14:27:19.549Z,7.90
2023-01-20T14:28:21.113Z,8.65
2023-01-20T14:29:24.792Z,8.02
2023-01-20T14:30:27.767Z,8.40
2023-01-20T14:31:45.833Z,8.05
2023-01-20T14:32:47.942Z,7.80
2023-01-20T14:33:53.581Z,8.32
2023-01-20T14:34:56.275Z,8.35
2023-01-20T14:35:57.868Z,8.23
2023-01-20T14:37:22.280Z,8.05
2023-01-20T14:38:23.928Z,8.05
2023-01-20T14:39:27.763Z,8.07
2023-01-20T14:40:35.216Z,7.82
2023-01-20T14:41:52.919Z,8.35
2023-01-20T14:42:56.401Z,7.60
2023-01-20T14:43:58.747Z,8.95
2023-01-20T14:45:00.332Z,7.85
2023-01-20T14:46:02.390Z,7.85
2023-01-20T14:47:04.323Z,9.02